createdAt,value
2019-02-24T00:01:40.278Z,103524.02
2019-02-24T00:04:32.365Z,103524.77
2019-02-24T00:07:00.304Z,103516.76
2019-02-24T00:09:33.029Z,103518.47
2019-02-24T00:12:15.798Z,103519.63
2019-02-24T00:14:44.977Z,103515.49
2019-02-24T00:17:14.361Z,103518.44
2019-02-24T00:20:02.783Z,103518.44
2019-02-24T00:22:55.397Z,103524.29
2019-02-24T00:25:27.901Z,103510.34
2019-02-24T00:28:17.849Z,103501.03
2019-02-24T00:30:49.132Z,103505.20
2019-02-24T00:33:20.935Z,103506.09
2019-02-24T00:36:03.367Z,103504.76
2019-02-24T00:38:34.510Z,103506.88
2019-02-24T00:41:03.807Z,103504.67
2019-02-24T00:43:32.865Z,103507.73
2019-02-24T00:46:01.976Z,103510.16
2019-02-24T00:48:31.027Z,103506.02
2019-02-24T00:51:00.076Z,103505.48
2019-02-24T00:53:29.139Z,103496.17
2019-02-24T00:55:59.670Z,103494.83
2019-02-24T00:58:29.143Z,103498.53
2019-02-24T01:00:58.222Z,103498.53
2019-02-24T01:03:27.814Z,103499.89
2019-02-24T01:05:56.848Z,103503.37
2019-02-24T01:08:27.765Z,103510.56
2019-02-24T01:10:56.791Z,103513.91
2019-02-24T01:13:25.831Z,103511.30
2019-02-24T01:15:58.197Z,103516.31
2019-02-24T01:18:27.195Z,103512.52
2019-02-24T01:20:56.230Z,103511.61
2019-02-24T01:23:25.469Z,103516.53
2019-02-24T01:25:55.809Z,103514.85
2019-02-24T01:28:25.597Z,103523.16
2019-02-24T01:30:55.956Z,103521.55
2019-02-24T01:33:25.049Z,103517.70
2019-02-24T01:35:54.128Z,103522.77
2019-02-24T01:38:23.143Z,103523.52
2019-02-24T01:40:52.335Z,103524.87
2019-02-24T01:43:21.354Z,103526.50
2019-02-24T01:45:50.394Z,103519.89
2019-02-24T01:48:21.122Z,103523.86
2019-02-24T01:50:50.265Z,103529.11
2019-02-24T01:53:19.350Z,103530.13
2019-02-24T01:55:48.418Z,103531.98
2019-02-24T01:58:17.441Z,103528.69
2019-02-24T02:00:46.463Z,103522.61
2019-02-24T02:03:15.514Z,103514.03
2019-02-24T02:05:44.614Z,103516.58
2019-02-24T02:08:13.638Z,103515.23
2019-02-24T02:10:42.628Z,103512.23
2019-02-24T02:13:11.943Z,103512.23
2019-02-24T02:15:41.037Z,103513.38
2019-02-24T02:18:10.053Z,103516.36
2019-02-24T02:20:39.144Z,103509.11
2019-02-24T02:23:08.228Z,103514.55
2019-02-24T02:25:37.255Z,103504.66
2019-02-24T02:28:06.350Z,103501.80
2019-02-24T02:30:35.405Z,103495.54
2019-02-24T02:33:05.400Z,103494.08
2019-02-24T02:35:34.622Z,103492.52
2019-02-24T02:38:03.694Z,103485.35
2019-02-24T02:40:34.097Z,103492.43
2019-02-24T02:43:03.105Z,103492.43
2019-02-24T02:45:33.570Z,103483.69
2019-02-24T02:48:02.603Z,103487.02
2019-02-24T02:50:31.739Z,103491.42
2019-02-24T02:53:02.015Z,103491.42
2019-02-24T02:55:31.383Z,103485.38
2019-02-24T02:58:00.572Z,103485.38
2019-02-24T03:00:34.471Z,103474.72
2019-02-24T03:03:05.862Z,103473.92
2019-02-24T03:05:34.985Z,103482.36
2019-02-24T03:08:11.598Z,103470.98
2019-02-24T03:10:40.747Z,103475.45
2019-02-24T03:13:09.847Z,103489.91
2019-02-24T03:15:38.930Z,103488.09
2019-02-24T03:18:09.403Z,103483.64
2019-02-24T03:20:38.492Z,103484.05
2019-02-24T03:23:07.584Z,103487.37
2019-02-24T03:25:36.720Z,103496.22
2019-02-24T03:28:05.727Z,103505.52
2019-02-24T03:30:34.787Z,103508.58
2019-02-24T03:33:03.990Z,103514.91
2019-02-24T03:35:33.091Z,103517.03
2019-02-24T03:38:02.187Z,103520.69
2019-02-24T03:40:31.392Z,103521.83
2019-02-24T03:43:00.445Z,103518.41
2019-02-24T03:45:30.422Z,103515.41
2019-02-24T03:47:59.536Z,103515.20
2019-02-24T03:50:28.573Z,103516.22
2019-02-24T03:52:57.569Z,103508.25
2019-02-24T03:55:26.748Z,103508.25
2019-02-24T03:57:55.907Z,103514.33
2019-02-24T04:00:27.770Z,103509.22
2019-02-24T04:02:56.936Z,103507.25
2019-02-24T04:05:25.947Z,103512.28
2019-02-24T04:07:55.065Z,103509.75
2019-02-24T04:10:24.175Z,103516.42
2019-02-24T04:12:53.271Z,103520.44
2019-02-24T04:15:22.285Z,103526.48
2019-02-24T04:17:53.832Z,103532.59
2019-02-24T04:20:22.876Z,103536.86
2019-02-24T04:22:51.885Z,103536.86
2019-02-24T04:25:20.898Z,103541.33
2019-02-24T04:27:49.969Z,103541.98
2019-02-24T04:30:22.318Z,103541.34
2019-02-24T04:32:53.292Z,103540.72
2019-02-24T04:35:22.318Z,103540.72
2019-02-24T04:37:51.428Z,103543.31
2019-02-24T04:40:21.584Z,103547.28
2019-02-24T04:42:50.612Z,103547.28
2019-02-24T04:45:19.645Z,103544.50
2019-02-24T04:47:48.716Z,103544.50
2019-02-24T04:50:17.733Z,103542.07
2019-02-24T04:52:46.745Z,103552.09
2019-02-24T04:55:16.011Z,103547.41
2019-02-24T04:57:45.069Z,103542.11
2019-02-24T05:00:15.638Z,103539.31
2019-02-24T05:02:44.715Z,103537.45
2019-02-24T05:05:13.726Z,103540.54
2019-02-24T05:07:42.813Z,103543.06
2019-02-24T05:10:11.884Z,103547.92
2019-02-24T05:12:40.954Z,103546.82
2019-02-24T05:15:10.059Z,103536.19
2019-02-24T05:17:39.100Z,103541.48
2019-02-24T05:20:08.395Z,103541.48
2019-02-24T05:22:37.565Z,103557.43
2019-02-24T05:25:06.863Z,103556.55
2019-02-24T05:27:36.154Z,103551.80
2019-02-24T05:30:12.676Z,103549.27
2019-02-24T05:32:42.151Z,103554.38
2019-02-24T05:35:11.480Z,103557.25
2019-02-24T05:37:40.702Z,103554.11
2019-02-24T05:40:09.874Z,103558.74
2019-02-24T05:42:38.999Z,103552.95
2019-02-24T05:45:08.175Z,103550.80
2019-02-24T05:47:37.238Z,103556.90
2019-02-24T05:50:07.661Z,103554.69
2019-02-24T05:52:37.495Z,103554.12
2019-02-24T05:55:06.890Z,103554.12
2019-02-24T05:57:35.941Z,103557.71
2019-02-24T06:00:05.478Z,103549.30
2019-02-24T06:02:34.521Z,103559.55
2019-02-24T06:05:03.752Z,103551.40
2019-02-24T06:07:33.305Z,103551.40
2019-02-24T06:10:05.607Z,103548.89
2019-02-24T06:12:34.981Z,103549.28
2019-02-24T06:15:21.623Z,103551.38
2019-02-24T06:17:51.736Z,103550.14
2019-02-24T06:20:20.633Z,103540.64
2019-02-24T06:22:51.204Z,103546.57
2019-02-24T06:25:21.100Z,103552.11
2019-02-24T06:27:50.186Z,103564.38
2019-02-24T06:30:19.249Z,103564.06
2019-02-24T06:32:48.281Z,103563.42
2019-02-24T06:35:17.376Z,103563.42
2019-02-24T06:37:48.941Z,103572.55
2019-02-24T06:40:18.057Z,103578.26
2019-02-24T06:43:08.892Z,103591.63
2019-02-24T06:46:21.051Z,103596.67
2019-02-24T06:49:02.485Z,103615.98
2019-02-24T06:51:36.056Z,103615.98
2019-02-24T06:54:27.516Z,103626.58
2019-02-24T06:57:00.586Z,103635.02
2019-02-24T07:00:15.300Z,103635.39
2019-02-24T07:03:38.071Z,103635.39
2019-02-24T07:06:32.490Z,103627.65
2019-02-24T07:09:12.221Z,103621.91
2019-02-24T07:11:46.638Z,103633.55
2019-02-24T07:14:17.944Z,103633.55
2019-02-24T07:16:47.233Z,103631.61
2019-02-24T07:19:16.237Z,103623.19
2019-02-24T07:21:46.627Z,103623.19
2019-02-24T07:24:15.801Z,103626.23
2019-02-24T07:26:45.163Z,103625.07
2019-02-24T07:29:17.141Z,103620.42
2019-02-24T07:31:46.316Z,103628.14
2019-02-24T07:34:16.704Z,103636.16
2019-02-24T07:36:45.734Z,103640.28
2019-02-24T07:39:14.777Z,103637.69
2019-02-24T07:41:47.383Z,103637.69
2019-02-24T07:44:16.436Z,103637.69
2019-02-24T07:46:45.491Z,103645.64
2019-02-24T07:49:16.806Z,103633.34
2019-02-24T07:51:45.919Z,103629.69
2019-02-24T07:54:16.493Z,103635.86
2019-02-24T07:56:45.591Z,103638.57
2019-02-24T07:59:14.699Z,103635.50
2019-02-24T08:01:51.191Z,103632.07
2019-02-24T08:04:20.266Z,103630.25
2019-02-24T08:06:49.305Z,103631.72
2019-02-24T08:09:18.312Z,103620.67
2019-02-24T08:11:50.222Z,103631.11
2019-02-24T08:14:19.223Z,103622.53
2019-02-24T08:16:48.268Z,103627.72
2019-02-24T08:19:17.436Z,103626.59
2019-02-24T08:21:47.540Z,103620.39
2019-02-24T08:24:19.377Z,103626.58
2019-02-24T08:26:51.122Z,103626.58
2019-02-24T08:29:20.192Z,103629.28
2019-02-24T08:31:49.233Z,103639.46
2019-02-24T08:34:18.251Z,103631.52
2019-02-24T08:36:48.695Z,103625.34
2019-02-24T08:39:17.963Z,103627.88
2019-02-24T08:41:49.170Z,103622.45
2019-02-24T08:44:18.482Z,103622.23
2019-02-24T08:46:47.611Z,103613.46
2019-02-24T08:49:16.712Z,103625.36
2019-02-24T08:51:46.018Z,103629.28
2019-02-24T08:54:15.164Z,103630.51
2019-02-24T08:56:44.381Z,103625.84
2019-02-24T08:59:16.626Z,103629.28
2019-02-24T09:01:45.652Z,103646.71
2019-02-24T09:04:14.880Z,103645.64
2019-02-24T09:06:44.033Z,103645.64
2019-02-24T09:09:15.459Z,103649.86
2019-02-24T09:11:46.016Z,103646.09
2019-02-24T09:14:15.027Z,103642.48
2019-02-24T09:16:48.588Z,103634.92
2019-02-24T09:19:23.010Z,103636.16
2019-02-24T09:21:52.060Z,103628.27
2019-02-24T09:24:22.319Z,103639.89
2019-02-24T09:26:51.488Z,103637.31
2019-02-24T09:29:20.686Z,103633.39
2019-02-24T09:31:49.679Z,103631.44
2019-02-24T09:34:18.707Z,103640.46
2019-02-24T09:36:47.838Z,103645.99
2019-02-24T09:39:16.907Z,103641.20
2019-02-24T09:41:46.066Z,103628.81
2019-02-24T09:44:15.258Z,103630.08
2019-02-24T09:46:44.268Z,103630.83
2019-02-24T09:49:13.422Z,103630.64
2019-02-24T09:51:42.547Z,103631.06
2019-02-24T09:54:11.564Z,103628.82
2019-02-24T09:56:40.743Z,103628.82
2019-02-24T09:59:09.767Z,103632.17
2019-02-24T10:01:38.853Z,103634.71
2019-02-24T10:04:09.737Z,103634.71
2019-02-24T10:06:43.599Z,103637.78
2019-02-24T10:09:19.241Z,103637.80
2019-02-24T10:11:48.532Z,103632.40
2019-02-24T10:14:17.856Z,103634.95
2019-02-24T10:16:47.368Z,103623.24
2019-02-24T10:19:38.207Z,103635.53
2019-02-24T10:22:09.390Z,103640.44
2019-02-24T10:24:38.761Z,103640.28
2019-02-24T10:27:08.990Z,103644.34
2019-02-24T10:29:38.196Z,103649.19
2019-02-24T10:32:08.975Z,103651.33
2019-02-24T10:34:38.027Z,103657.54
2019-02-24T10:37:16.555Z,103659.87
2019-02-24T10:39:45.687Z,103659.83
2019-02-24T10:42:17.715Z,103659.83
2019-02-24T10:44:48.931Z,103661.44
2019-02-24T10:47:18.093Z,103664.80
2019-02-24T10:49:47.144Z,103669.91
2019-02-24T10:52:16.228Z,103676.16
2019-02-24T10:54:52.734Z,103673.23
2019-02-24T10:57:21.831Z,103664.88
2019-02-24T10:59:50.859Z,103662.92
2019-02-24T11:02:21.123Z,103666.84
2019-02-24T11:04:50.133Z,103677.70
2019-02-24T11:07:19.380Z,103683.03
2019-02-24T11:09:48.443Z,103687.45
2019-02-24T11:12:17.451Z,103679.69
2019-02-24T11:14:46.560Z,103675.19
2019-02-24T11:17:15.665Z,103675.19
2019-02-24T11:19:44.694Z,103665.00
2019-02-24T11:22:13.737Z,103663.97
2019-02-24T11:24:42.766Z,103663.97
2019-02-24T11:27:14.236Z,103665.61
2019-02-24T11:29:43.332Z,103668.77
2019-02-24T11:32:12.451Z,103663.67
2019-02-24T11:34:41.596Z,103652.31
2019-02-24T11:37:10.708Z,103658.13
2019-02-24T11:39:42.847Z,103659.22
2019-02-24T11:42:11.965Z,103654.00
2019-02-24T11:44:40.985Z,103659.55
2019-02-24T11:47:09.982Z,103656.98
2019-02-24T11:49:39.041Z,103662.64
2019-02-24T11:52:08.161Z,103663.75
2019-02-24T11:54:37.189Z,103657.05
2019-02-24T11:57:06.340Z,103660.73
2019-02-24T11:59:35.358Z,103654.81
2019-02-24T12:02:04.448Z,103664.86
2019-02-24T12:04:33.468Z,103671.55
2019-02-24T12:07:02.642Z,103671.55
2019-02-24T12:09:31.760Z,103669.06
2019-02-24T12:12:00.816Z,103681.34
2019-02-24T12:14:29.899Z,103679.91
2019-02-24T12:16:58.924Z,103677.69
2019-02-24T12:19:27.939Z,103680.61
2019-02-24T12:21:56.970Z,103670.35
2019-02-24T12:24:25.994Z,103662.78
2019-02-24T12:26:55.215Z,103665.86
2019-02-24T12:29:24.277Z,103662.48
2019-02-24T12:31:56.819Z,103664.78
2019-02-24T12:34:25.746Z,103665.42
2019-02-24T12:36:57.295Z,103666.20
2019-02-24T12:39:26.318Z,103670.86
2019-02-24T12:41:55.438Z,103673.44
2019-02-24T12:44:24.529Z,103669.23
2019-02-24T12:46:53.598Z,103666.11
2019-02-24T12:49:22.634Z,103667.42
2019-02-24T12:51:52.603Z,103662.67
2019-02-24T12:54:25.724Z,103652.72
2019-02-24T12:56:54.813Z,103652.42
2019-02-24T12:59:23.894Z,103660.36
2019-02-24T13:02:05.769Z,103649.91
2019-02-24T13:04:33.229Z,103649.91
2019-02-24T13:07:06.643Z,103649.87
2019-02-24T13:09:36.743Z,103644.92
2019-02-24T13:12:05.908Z,103651.71
2019-02-24T13:14:34.934Z,103641.33
2019-02-24T13:17:03.941Z,103641.33
2019-02-24T13:19:34.517Z,103634.75
2019-02-24T13:22:03.774Z,103635.38
2019-02-24T13:24:33.830Z,103635.38
2019-02-24T13:27:05.669Z,103631.61
2019-02-24T13:29:34.967Z,103623.98
2019-02-24T13:32:04.077Z,103632.45
2019-02-24T13:34:33.437Z,103635.44
2019-02-24T13:37:03.538Z,103635.44
2019-02-24T13:39:32.599Z,103626.37
2019-02-24T13:42:01.665Z,103626.53
2019-02-24T13:44:32.416Z,103635.55
2019-02-24T13:47:03.119Z,103629.57
2019-02-24T13:49:32.127Z,103629.57
2019-02-24T13:52:01.135Z,103623.26
2019-02-24T13:54:30.215Z,103617.89
2019-02-24T13:57:01.646Z,103622.65
2019-02-24T13:59:30.763Z,103621.00
2019-02-24T14:02:01.914Z,103610.48
2019-02-24T14:04:30.648Z,103610.16
2019-02-24T14:06:59.676Z,103610.16
2019-02-24T14:09:30.871Z,103612.50
2019-02-24T14:11:59.933Z,103611.08
2019-02-24T14:14:29.030Z,103608.67
2019-02-24T14:16:58.066Z,103602.84
2019-02-24T14:19:27.104Z,103601.88
2019-02-24T14:21:56.082Z,103602.12
2019-02-24T14:24:25.231Z,103602.97
2019-02-24T14:26:55.493Z,103597.45
2019-02-24T14:29:24.613Z,103602.16
2019-02-24T14:31:53.659Z,103601.15
2019-02-24T14:34:24.758Z,103595.45
2019-02-24T14:36:53.886Z,103594.15
2019-02-24T14:39:22.899Z,103600.83
2019-02-24T14:41:53.263Z,103597.89
2019-02-24T14:44:22.361Z,103597.38
2019-02-24T14:46:51.380Z,103595.69
2019-02-24T14:49:20.415Z,103595.84
2019-02-24T14:51:49.489Z,103606.08
2019-02-24T14:54:18.487Z,103594.91
2019-02-24T14:56:47.515Z,103596.83
2019-02-24T14:59:16.558Z,103592.17
2019-02-24T15:01:49.992Z,103592.17
2019-02-24T15:04:16.362Z,103596.84
2019-02-24T15:06:45.446Z,103591.34
2019-02-24T15:09:14.479Z,103593.55
2019-02-24T15:11:43.734Z,103593.55
2019-02-24T15:14:12.851Z,103590.78
2019-02-24T15:16:44.242Z,103594.91
2019-02-24T15:19:13.352Z,103595.70
2019-02-24T15:21:43.352Z,103592.47
2019-02-24T15:24:14.748Z,103592.99
2019-02-24T15:26:44.020Z,103593.57
2019-02-24T15:29:12.992Z,103593.78
2019-02-24T15:31:42.049Z,103593.06
2019-02-24T15:34:11.070Z,103590.06
2019-02-24T15:36:40.102Z,103590.06
2019-02-24T15:39:09.181Z,103589.81
2019-02-24T15:41:38.350Z,103577.16
2019-02-24T15:44:10.129Z,103585.27
2019-02-24T15:46:39.641Z,103577.73
2019-02-24T15:49:08.776Z,103584.67
2019-02-24T15:51:37.928Z,103576.86
2019-02-24T15:54:07.033Z,103581.23
2019-02-24T15:56:38.262Z,103573.96
2019-02-24T15:59:07.435Z,103574.28
2019-02-24T16:01:36.462Z,103572.63
2019-02-24T16:04:05.581Z,103572.63
2019-02-24T16:06:37.168Z,103574.28
2019-02-24T16:09:06.281Z,103572.88
2019-02-24T16:11:35.426Z,103576.52
2019-02-24T16:14:04.511Z,103576.19
2019-02-24T16:16:33.682Z,103572.84
2019-02-24T16:19:02.725Z,103573.16
2019-02-24T16:21:31.763Z,103580.73
2019-02-24T16:24:01.886Z,103576.70
2019-02-24T16:26:30.965Z,103585.27
2019-02-24T16:29:00.017Z,103580.67
2019-02-24T16:31:29.104Z,103580.67
2019-02-24T16:33:58.169Z,103579.11
2019-02-24T16:36:27.175Z,103572.52
2019-02-24T16:38:56.499Z,103571.92
2019-02-24T16:41:29.897Z,103571.92
2019-02-24T16:43:56.530Z,103577.56
2019-02-24T16:46:25.822Z,103573.71
2019-02-24T16:48:54.924Z,103578.43
2019-02-24T16:51:23.960Z,103581.11
2019-02-24T16:53:53.049Z,103581.69
2019-02-24T16:56:22.068Z,103586.34
2019-02-24T16:58:51.270Z,103581.12
2019-02-24T17:01:20.312Z,103580.73
2019-02-24T17:03:49.377Z,103580.73
2019-02-24T17:06:18.538Z,103579.88
2019-02-24T17:08:52.272Z,103583.86
2019-02-24T17:11:18.293Z,103585.27
2019-02-24T17:13:47.384Z,103592.20
2019-02-24T17:16:16.440Z,103592.55
2019-02-24T17:18:46.493Z,103588.11
2019-02-24T17:21:15.533Z,103592.02
2019-02-24T17:23:49.906Z,103598.08
2019-02-24T17:26:15.349Z,103596.77
2019-02-24T17:28:44.371Z,103590.39
2019-02-24T17:31:13.570Z,103595.73
2019-02-24T17:33:44.043Z,103591.56
2019-02-24T17:36:13.144Z,103591.67
2019-02-24T17:38:42.222Z,103600.16
2019-02-24T17:41:13.886Z,103601.89
2019-02-24T17:43:44.066Z,103602.41
2019-02-24T17:46:13.186Z,103609.97
2019-02-24T17:48:43.002Z,103611.58
2019-02-24T17:51:20.624Z,103604.67
2019-02-24T17:53:42.914Z,103607.57
2019-02-24T17:56:12.075Z,103613.70
2019-02-24T17:58:41.199Z,103616.85
2019-02-24T18:01:10.242Z,103612.16
2019-02-24T18:03:39.910Z,103605.43
2019-02-24T18:06:09.065Z,103605.05
2019-02-24T18:08:38.079Z,103608.30
2019-02-24T18:11:07.198Z,103606.70
2019-02-24T18:13:36.240Z,103605.98
2019-02-24T18:16:05.360Z,103621.80
2019-02-24T18:18:34.371Z,103610.72
2019-02-24T18:21:03.551Z,103616.89
2019-02-24T18:23:32.626Z,103612.06
2019-02-24T18:26:01.722Z,103613.70
2019-02-24T18:28:30.931Z,103611.56
2019-02-24T18:31:00.447Z,103616.42
2019-02-24T18:33:29.426Z,103616.22
2019-02-24T18:35:58.507Z,103615.86
2019-02-24T18:38:28.078Z,103612.87
2019-02-24T18:40:57.218Z,103612.41
2019-02-24T18:43:26.252Z,103616.81
2019-02-24T18:45:55.262Z,103610.94
2019-02-24T18:48:24.293Z,103613.95
2019-02-24T18:50:53.635Z,103606.20
2019-02-24T18:53:22.843Z,103612.20
2019-02-24T18:55:51.865Z,103607.54
2019-02-24T18:58:21.215Z,103602.97
2019-02-24T19:00:50.251Z,103599.36
2019-02-24T19:03:19.296Z,103601.72
2019-02-24T19:05:48.362Z,103607.54
2019-02-24T19:08:17.424Z,103604.01
2019-02-24T19:10:46.420Z,103602.42
2019-02-24T19:13:15.440Z,103605.52
2019-02-24T19:15:44.572Z,103605.52
2019-02-24T19:18:13.757Z,103619.27
2019-02-24T19:20:42.817Z,103614.98
2019-02-24T19:23:11.964Z,103613.68
2019-02-24T19:25:41.181Z,103613.68
2019-02-24T19:28:10.242Z,103613.11
2019-02-24T19:30:39.409Z,103616.88
2019-02-24T19:33:08.439Z,103616.05
2019-02-24T19:35:37.540Z,103616.77
2019-02-24T19:38:06.743Z,103616.52
2019-02-24T19:40:37.761Z,103613.25
2019-02-24T19:43:10.111Z,103620.09
2019-02-24T19:45:41.194Z,103617.41
2019-02-24T19:48:13.508Z,103614.88
2019-02-24T19:50:42.644Z,103620.17
2019-02-24T19:53:11.758Z,103620.58
2019-02-24T19:55:42.045Z,103619.36
2019-02-24T19:58:12.251Z,103618.77
2019-02-24T20:00:41.460Z,103624.22
2019-02-24T20:03:10.739Z,103619.78
2019-02-24T20:05:40.814Z,103628.13
2019-02-24T20:08:09.862Z,103628.13
2019-02-24T20:10:39.104Z,103638.38
2019-02-24T20:13:08.160Z,103636.34
2019-02-24T20:15:37.191Z,103614.77
2019-02-24T20:18:06.369Z,103614.77
2019-02-24T20:20:35.462Z,103642.84
2019-02-24T20:23:04.662Z,103635.27
2019-02-24T20:25:35.256Z,103635.27
2019-02-24T20:28:04.321Z,103633.47
2019-02-24T20:30:35.079Z,103633.47
2019-02-24T20:33:04.308Z,103635.92
2019-02-24T20:35:33.555Z,103638.97
2019-02-24T20:38:02.707Z,103638.97
2019-02-24T20:40:31.851Z,103658.38
2019-02-24T20:43:00.921Z,103658.38
2019-02-24T20:45:30.177Z,103657.20
2019-02-24T20:47:59.531Z,103658.44
2019-02-24T20:50:28.779Z,103667.05
2019-02-24T20:52:57.906Z,103673.77
2019-02-24T20:55:27.108Z,103667.84
2019-02-24T20:57:56.299Z,103672.94
2019-02-24T21:00:44.761Z,103671.67
2019-02-24T21:03:15.300Z,103678.58
2019-02-24T21:05:44.435Z,103675.20
2019-02-24T21:08:13.572Z,103683.21
2019-02-24T21:10:44.136Z,103679.43
2019-02-24T21:13:13.215Z,103688.81
2019-02-24T21:15:42.348Z,103675.64
2019-02-24T21:18:11.533Z,103682.87
2019-02-24T21:20:48.024Z,103678.66
2019-02-24T21:23:17.246Z,103688.86
2019-02-24T21:25:46.388Z,103691.77
2019-02-24T21:28:15.469Z,103688.84
2019-02-24T21:30:45.918Z,103699.45
2019-02-24T21:33:15.134Z,103697.77
2019-02-24T21:35:44.176Z,103697.77
2019-02-24T21:38:15.707Z,103702.84
2019-02-24T21:40:44.698Z,103704.13
2019-02-24T21:43:16.239Z,103704.56
2019-02-24T21:45:45.371Z,103703.28
2019-02-24T21:48:14.427Z,103704.08
2019-02-24T21:50:45.711Z,103704.08
2019-02-24T21:53:14.757Z,103704.48
2019-02-24T21:55:43.904Z,103695.50
2019-02-24T21:58:15.398Z,103688.67
2019-02-24T22:00:44.503Z,103717.57
2019-02-24T22:03:13.739Z,103508.33
2019-02-24T22:05:43.350Z,103711.64
2019-02-24T22:08:12.528Z,103696.73
2019-02-24T22:10:41.630Z,103707.41
2019-02-24T22:13:10.823Z,103707.41
2019-02-24T22:15:39.938Z,103709.45
2019-02-24T22:18:10.037Z,103712.39
2019-02-24T22:20:39.089Z,103706.41
2019-02-24T22:23:08.234Z,103703.92
2019-02-24T22:25:37.393Z,103703.92
2019-02-24T22:28:06.591Z,103712.31
2019-02-24T22:30:36.029Z,103692.33
2019-02-24T22:33:07.226Z,103697.87
2019-02-24T22:35:36.336Z,103700.37
2019-02-24T22:38:05.440Z,103700.37
2019-02-24T22:40:34.681Z,103701.95
2019-02-24T22:43:03.778Z,103698.98
2019-02-24T22:45:32.890Z,103698.16
2019-02-24T22:48:03.163Z,103692.20
2019-02-24T22:50:32.586Z,103695.13
2019-02-24T22:53:02.899Z,103696.33
2019-02-24T22:55:33.333Z,103705.12
2019-02-24T22:58:02.361Z,103699.19
2019-02-24T23:00:54.610Z,103703.40
2019-02-24T23:03:24.793Z,103702.13
2019-02-24T23:05:53.898Z,103702.09
2019-02-24T23:08:23.061Z,103698.25
2019-02-24T23:10:52.253Z,103705.49
2019-02-24T23:13:21.445Z,103702.47
2019-02-24T23:15:50.629Z,103701.49
2019-02-24T23:18:19.825Z,103701.86
2019-02-24T23:20:48.921Z,103696.38
2019-02-24T23:23:20.021Z,103705.09
2019-02-24T23:25:49.115Z,103702.41
2019-02-24T23:28:18.103Z,103703.36
2019-02-24T23:30:47.236Z,103704.95
2019-02-24T23:33:16.356Z,103697.84
2019-02-24T23:35:45.503Z,103701.20
2019-02-24T23:38:14.533Z,103702.14
2019-02-24T23:40:44.739Z,103700.33
2019-02-24T23:43:13.959Z,103700.33
2019-02-24T23:45:43.039Z,103700.24
2019-02-24T23:48:12.357Z,103700.24
2019-02-24T23:50:41.476Z,103708.13
2019-02-24T23:53:10.567Z,103710.33
2019-02-24T23:55:39.728Z,103707.62
2019-02-24T23:58:08.847Z,103707.91
